Time;durP1;ratioP1;P1;durP2;ratioP2;P2;SDS_P1;SDS_P2;PMS_P1;PMS_P2;Temp;Humidity;BMP_temperature;BMP_pressure;BME280_temperature;BME280_humidity;BME280_pressure;Samples;Min_cycle;Max_cycle;Signal;HPM_P1;HPM_P2
2023/12/05 00:02:12;;;;;;;50.80;47.70;;;;;;;4.77;66.79;99708.28;5018572;28;20033;-71
2023/12/05 00:04:42;;;;;;;48.08;45.40;;;;;;;4.77;66.82;99708.28;5023572;28;20084;-71
2023/12/05 00:07:08;;;;;;;51.85;48.80;;;;;;;4.78;66.74;99711.78;5022726;28;20051;-71
2023/12/05 00:09:33;;;;;;;51.47;48.58;;;;;;;4.78;66.81;99709.91;5030543;28;20108;-71
2023/12/05 00:11:58;;;;;;;52.20;48.85;;;;;;;4.80;66.47;99703.53;5021427;28;20466;-72
2023/12/05 00:14:24;;;;;;;53.33;49.78;;;;;;;4.81;66.70;99705.16;5017875;28;20033;-70
2023/12/05 00:16:49;;;;;;;50.10;46.78;;;;;;;4.80;66.79;99707.03;5021484;28;20083;-70
2023/12/05 00:19:15;;;;;;;50.17;47.15;;;;;;;4.80;66.94;99709.69;5014692;28;20057;-70
2023/12/05 00:21:40;;;;;;;49.55;46.28;;;;;;;4.78;66.88;99696.53;5028797;28;20557;-71
2023/12/05 00:24:06;;;;;;;52.50;48.85;;;;;;;4.78;66.58;99703.75;5028011;28;20125;-71
2023/12/05 00:26:32;;;;;;;54.92;51.35;;;;;;;4.78;67.04;99701.06;5030139;28;20033;-71
2023/12/05 00:28:58;;;;;;;51.75;48.33;;;;;;;4.79;66.77;99700.06;5020824;28;20128;-71
2023/12/05 00:31:23;;;;;;;41.83;39.63;;;;;;;4.78;67.34;99693.06;5021183;28;20108;-71
2023/12/05 00:33:49;;;;;;;50.67;47.28;;;;;;;4.78;67.03;99685.84;5029103;28;20440;-71
2023/12/05 00:36:14;;;;;;;50.75;47.97;;;;;;;4.81;67.15;99692.59;5025067;28;20041;-71
2023/12/05 00:38:39;;;;;;;60.17;55.90;;;;;;;4.82;66.89;99694.22;5022047;28;20120;-71
2023/12/05 00:41:06;;;;;;;46.03;43.58;;;;;;;4.83;67.08;99695.84;5019904;28;20038;-71
2023/12/05 00:43:31;;;;;;;52.38;49.00;;;;;;;4.84;66.88;99696.66;5012409;28;20041;-71
2023/12/05 00:45:57;;;;;;;48.05;45.33;;;;;;;4.85;66.81;99695.63;5012431;28;20034;-71
2023/12/05 00:48:22;;;;;;;51.00;47.90;;;;;;;4.84;66.92;99692.16;5016540;28;20112;-71
2023/12/05 00:50:48;;;;;;;54.00;50.30;;;;;;;4.86;67.03;99689.22;5018243;28;20125;-71
2023/12/05 00:53:14;;;;;;;47.88;44.88;;;;;;;4.86;67.05;99686.53;5012070;28;20026;-71
2023/12/05 00:55:39;;;;;;;48.30;45.60;;;;;;;4.85;66.93;99692.97;5029113;28;20037;-71
2023/12/05 00:58:05;;;;;;;58.20;54.65;;;;;;;4.85;67.24;99696.44;5027452;28;20599;-71
2023/12/05 01:00:30;;;;;;;50.60;47.20;;;;;;;4.87;67.36;99698.91;5028558;28;20044;-71
2023/12/05 01:02:55;;;;;;;48.75;45.78;;;;;;;4.87;67.13;99693.53;5013701;28;20030;-71
2023/12/05 01:05:21;;;;;;;44.88;42.28;;;;;;;4.87;67.19;99691.69;5012413;28;20069;-71
2023/12/05 01:07:46;;;;;;;54.30;50.63;;;;;;;4.86;67.24;99695.38;5012912;28;20046;-71
2023/12/05 01:10:12;;;;;;;53.38;49.67;;;;;;;4.86;67.12;99684.69;5025042;28;20056;-71
2023/12/05 01:12:37;;;;;;;56.15;51.75;;;;;;;4.86;67.47;99686.53;5010357;28;20034;-72
2023/12/05 01:15:04;;;;;;;53.92;50.17;;;;;;;4.87;67.37;99682.84;5013304;28;20159;-71
2023/12/05 01:17:29;;;;;;;58.22;54.53;;;;;;;4.88;67.31;99684.47;5020351;28;20025;-71
2023/12/05 01:19:55;;;;;;;55.55;51.95;;;;;;;4.89;67.19;99675.38;5015690;28;20068;-71
2023/12/05 01:22:21;;;;;;;51.17;48.20;;;;;;;4.90;67.43;99679.69;5018524;28;20453;-71
2023/12/05 01:24:53;;;;;;;58.15;53.67;;;;;;;4.89;67.54;99670.03;5026683;28;20112;-71
2023/12/05 01:27:19;;;;;;;54.88;51.45;;;;;;;4.90;67.58;99679.69;5047560;28;20394;-71
2023/12/05 01:29:44;;;;;;;56.22;52.67;;;;;;;4.89;67.43;99678.88;5015300;28;20034;-72
2023/12/05 01:32:09;;;;;;;49.08;46.42;;;;;;;4.92;67.50;99682.97;5034100;28;20048;-71
2023/12/05 01:34:35;;;;;;;56.55;52.65;;;;;;;4.91;67.68;99679.47;5030509;28;20544;-71
2023/12/05 01:37:00;;;;;;;54.83;51.17;;;;;;;4.94;67.59;99683.56;5021115;28;20073;-71
2023/12/05 01:39:25;;;;;;;54.38;51.03;;;;;;;4.94;67.42;99679.00;5033668;28;20033;-71
2023/12/05 01:41:51;;;;;;;54.17;50.35;;;;;;;4.96;67.66;99678.75;5032860;28;20088;-72
2023/12/05 01:44:16;;;;;;;56.35;52.60;;;;;;;4.95;67.64;99679.81;5019065;28;20042;-71
2023/12/05 01:46:43;;;;;;;53.40;49.78;;;;;;;4.95;67.64;99685.97;5022115;28;20026;-71
2023/12/05 01:49:09;;;;;;;49.42;46.47;;;;;;;4.96;67.66;99681.44;5033733;28;20037;-70
2023/12/05 01:51:35;;;;;;;48.03;45.30;;;;;;;4.97;67.97;99688.44;5033798;28;20473;-71
2023/12/05 01:54:01;;;;;;;55.00;50.90;;;;;;;4.98;67.83;99690.06;5017288;28;20037;-71
2023/12/05 01:56:27;;;;;;;56.63;53.00;;;;;;;4.97;67.62;99691.91;5016012;28;20044;-71
2023/12/05 01:58:52;;;;;;;52.03;48.60;;;;;;;4.98;67.57;99698.09;5015310;28;20112;-71
2023/12/05 02:01:18;;;;;;;49.42;46.67;;;;;;;4.99;67.83;99702.41;5015710;28;20113;-71
2023/12/05 02:03:45;;;;;;;57.58;53.03;;;;;;;5.00;67.28;99704.03;5033441;28;20060;-71
2023/12/05 02:06:11;;;;;;;54.50;50.78;;;;;;;5.01;67.79;99702.97;5027023;28;20068;-71
2023/12/05 02:08:38;;;;;;;49.08;45.80;;;;;;;5.00;67.83;99701.34;5016447;28;20065;-74
2023/12/05 02:11:04;;;;;;;53.38;50.30;;;;;;;5.00;67.96;99698.66;5031964;28;20029;-71
2023/12/05 02:13:30;;;;;;;50.15;46.42;;;;;;;5.00;67.75;99687.97;5033529;28;20087;-71
2023/12/05 02:16:07;;;;;;;56.08;52.38;;;;;;;5.01;68.02;99689.59;5019895;28;20034;-71
2023/12/05 02:18:39;;;;;;;48.85;46.05;;;;;;;5.02;67.87;99696.59;5026240;28;20148;-71
2023/12/05 02:21:13;;;;;;;49.90;46.92;;;;;;;5.03;67.83;99697.41;5022247;28;20056;-70
2023/12/05 02:24:10;;;;;;;53.25;49.97;;;;;;;5.03;67.67;99702.75;5027685;28;20032;-73
2023/12/05 02:27:00;;;;;;;52.88;49.50;;;;;;;5.03;67.90;99706.22;5031578;28;20158;-71
2023/12/05 02:29:25;;;;;;;49.85;46.85;;;;;;;5.02;67.97;99707.28;5020252;28;20057;-70
2023/12/05 02:31:51;;;;;;;49.53;45.80;;;;;;;5.02;67.95;99699.25;5013747;28;20037;-70
2023/12/05 02:34:16;;;;;;;50.03;46.95;;;;;;;5.04;67.96;99705.19;5032348;28;20144;-70
2023/12/05 02:36:59;;;;;;;52.08;48.47;;;;;;;5.05;67.85;99708.69;5033274;28;20480;-71
2023/12/05 02:39:28;;;;;;;51.67;48.42;;;;;;;5.05;67.77;99701.47;5029889;28;20108;-70
2023/12/05 02:41:56;;;;;;;51.97;48.60;;;;;;;5.07;67.68;99706.59;5020470;28;20029;-71
2023/12/05 02:44:38;;;;;;;46.97;44.55;;;;;;;5.09;67.92;99709.84;5013345;28;20037;-71
2023/12/05 02:47:06;;;;;;;54.63;51.08;;;;;;;5.10;67.99;99698.09;5027676;28;20392;-71
2023/12/05 02:49:31;;;;;;;52.90;49.58;;;;;;;5.11;67.78;99700.53;5023117;28;20042;-71
2023/12/05 02:51:57;;;;;;;55.15;51.67;;;;;;;5.13;67.67;99695.75;5023850;28;20421;-72
2023/12/05 02:54:22;;;;;;;53.20;49.90;;;;;;;5.13;67.90;99703.78;5012996;28;20113;-71
2023/12/05 02:56:47;;;;;;;53.45;50.35;;;;;;;5.14;68.10;99697.41;5018946;28;20484;-71
2023/12/05 02:59:13;;;;;;;50.15;47.45;;;;;;;5.15;67.89;99696.34;5028672;28;20113;-71
2023/12/05 03:01:39;;;;;;;49.40;46.70;;;;;;;5.14;68.04;99696.56;5014505;28;20389;-71
2023/12/05 03:04:05;;;;;;;54.72;50.83;;;;;;;5.15;67.88;99701.69;5022229;28;20033;-71
2023/12/05 03:06:31;;;;;;;53.75;50.75;;;;;;;5.17;67.69;99698.81;5029922;28;20046;-71
2023/12/05 03:08:56;;;;;;;59.78;56.17;;;;;;;5.18;67.76;99701.22;5021881;28;20042;-72
2023/12/05 03:11:21;;;;;;;50.92;48.05;;;;;;;5.20;67.68;99698.34;5023284;28;20120;-71
2023/12/05 03:13:47;;;;;;;48.22;45.35;;;;;;;5.18;67.92;99695.88;5012446;28;20100;-71
2023/12/05 03:16:12;;;;;;;49.25;46.20;;;;;;;5.19;67.98;99697.53;5018731;28;20068;-71
2023/12/05 03:18:38;;;;;;;48.47;45.30;;;;;;;5.21;67.79;99699.94;5025328;28;20037;-71
2023/12/05 03:21:04;;;;;;;52.65;48.85;;;;;;;5.21;67.69;99700.75;5029659;28;20398;-71
2023/12/05 03:23:29;;;;;;;49.50;46.53;;;;;;;5.23;68.02;99699.72;5020871;28;20040;-71
2023/12/05 03:25:55;;;;;;;58.55;54.75;;;;;;;5.22;67.96;99696.25;5012180;28;20467;-71
2023/12/05 03:28:20;;;;;;;54.67;51.75;;;;;;;5.21;68.04;99702.63;5016687;28;21084;-70
2023/12/05 03:30:46;;;;;;;52.58;49.05;;;;;;;5.20;67.94;99703.69;5030237;28;20037;-70
2023/12/05 03:33:11;;;;;;;50.10;47.35;;;;;;;5.20;68.10;99698.34;5013705;28;20026;-71
2023/12/05 03:35:36;;;;;;;51.10;48.25;;;;;;;5.21;68.02;99698.09;5013694;28;20092;-71
2023/12/05 03:38:02;;;;;;;53.78;50.70;;;;;;;5.23;67.82;99699.72;5013148;28;20025;-71
2023/12/05 03:40:27;;;;;;;51.92;48.78;;;;;;;5.23;68.13;99695.19;5028675;28;20060;-71
2023/12/05 03:42:52;;;;;;;55.10;51.33;;;;;;;5.25;67.73;99690.41;5025548;28;20436;-71
2023/12/05 03:45:18;;;;;;;50.83;47.95;;;;;;;5.25;68.00;99695.78;5012883;28;20105;-72
2023/12/05 03:47:43;;;;;;;52.33;48.58;;;;;;;5.25;68.07;99694.97;5013439;28;20036;-71
2023/12/05 03:50:09;;;;;;;58.72;55.05;;;;;;;5.26;68.06;99697.38;5025132;28;20385;-71
2023/12/05 03:52:34;;;;;;;60.63;56.30;;;;;;;5.27;67.94;99700.91;5023963;28;20048;-71
2023/12/05 03:54:59;;;;;;;54.97;51.08;;;;;;;5.27;68.02;99703.59;4995162;28;20087;-71
2023/12/05 03:57:25;;;;;;;52.88;50.08;;;;;;;5.28;67.68;99708.69;5030111;28;20052;-71
2023/12/05 03:59:50;;;;;;;49.90;47.05;;;;;;;5.28;67.96;99713.22;5027993;28;20046;-71
2023/12/05 04:02:16;;;;;;;57.00;53.35;;;;;;;5.28;67.76;99714.03;5028784;28;20064;-71
2023/12/05 04:04:41;;;;;;;55.92;52.63;;;;;;;5.29;67.80;99718.38;5030402;28;20516;-71
2023/12/05 04:07:07;;;;;;;53.63;51.00;;;;;;;5.31;68.13;99726.16;5031790;28;20387;-71
2023/12/05 04:09:32;;;;;;;54.28;50.63;;;;;;;5.32;67.87;99725.13;5026665;28;20060;-71
2023/12/05 04:11:58;;;;;;;51.28;48.28;;;;;;;5.32;68.02;99723.25;5028842;28;20063;-71
2023/12/05 04:14:24;;;;;;;53.67;50.85;;;;;;;5.33;67.94;99721.38;5013825;28;20041;-71
2023/12/05 04:16:49;;;;;;;56.53;53.20;;;;;;;5.34;67.79;99731.03;5018447;28;20038;-72
2023/12/05 04:19:15;;;;;;;59.38;55.55;;;;;;;5.33;67.96;99724.88;5029379;28;20131;-71
2023/12/05 04:21:40;;;;;;;51.33;48.20;;;;;;;5.34;68.17;99729.19;5030459;28;20143;-71
2023/12/05 04:24:06;;;;;;;59.40;54.97;;;;;;;5.36;68.01;99735.09;5028751;28;20556;-71
2023/12/05 04:26:31;;;;;;;56.53;52.90;;;;;;;5.36;68.16;99735.09;5031483;28;20069;-71
2023/12/05 04:28:57;;;;;;;57.90;53.95;;;;;;;5.36;68.04;99737.78;5028175;28;20085;-71
2023/12/05 04:31:25;;;;;;;55.72;52.15;;;;;;;5.36;67.88;99734.28;5012200;28;20041;-71
2023/12/05 04:33:51;;;;;;;54.67;51.47;;;;;;;5.36;68.14;99740.47;5027503;28;20029;-74
2023/12/05 04:36:16;;;;;;;52.80;49.83;;;;;;;5.35;68.00;99741.53;5011980;28;20030;-71
2023/12/05 04:38:41;;;;;;;51.72;48.50;;;;;;;5.36;68.06;99753.84;5029650;28;20493;-71
2023/12/05 04:41:07;;;;;;;53.65;49.85;;;;;;;5.36;67.96;99745.00;5012961;28;20047;-71
2023/12/05 04:43:32;;;;;;;52.40;48.33;;;;;;;5.36;67.93;99747.69;4996808;28;20026;-71
2023/12/05 04:45:58;;;;;;;53.75;50.58;;;;;;;5.37;67.96;99750.16;5030778;28;20038;-71
2023/12/05 04:48:23;;;;;;;57.03;53.40;;;;;;;5.38;68.17;99748.28;5031655;28;20026;-71
2023/12/05 04:50:48;;;;;;;53.58;50.40;;;;;;;5.39;67.77;99755.25;5031205;28;20060;-71
2023/12/05 04:53:14;;;;;;;52.15;49.22;;;;;;;5.39;68.06;99753.41;5018333;28;20029;-71
2023/12/05 04:55:39;;;;;;;50.05;47.33;;;;;;;5.41;68.10;99759.31;5012684;28;20040;-71
2023/12/05 04:58:05;;;;;;;52.63;49.30;;;;;;;5.41;67.94;99764.69;5010184;28;20038;-70
2023/12/05 05:00:31;;;;;;;54.28;50.78;;;;;;;5.42;68.16;99760.97;5011848;28;20100;-71
2023/12/05 05:02:57;;;;;;;57.78;54.17;;;;;;;5.43;67.77;99767.94;5023977;28;20041;-71
2023/12/05 05:05:22;;;;;;;54.88;51.78;;;;;;;5.43;67.75;99773.31;5028553;28;20053;-70
2023/12/05 05:07:48;;;;;;;58.60;54.25;;;;;;;5.43;68.17;99767.13;5014250;28;20061;-71
2023/12/05 05:10:13;;;;;;;50.63;47.38;;;;;;;5.43;67.81;99769.81;5021791;28;20084;-70
2023/12/05 05:12:39;;;;;;;50.95;48.30;;;;;;;5.43;68.06;99775.97;5029591;28;20056;-71
2023/12/05 05:15:05;;;;;;;60.75;56.30;;;;;;;5.46;67.92;99776.56;5028321;28;20392;-71
2023/12/05 05:17:30;;;;;;;53.53;50.22;;;;;;;5.45;67.92;99775.75;5013294;28;20038;-71
2023/12/05 05:19:55;;;;;;;54.00;50.63;;;;;;;5.45;68.15;99764.25;5029396;28;20504;-71
2023/12/05 05:22:21;;;;;;;54.38;50.80;;;;;;;5.46;68.22;99763.19;5031852;28;20053;-71
2023/12/05 05:24:46;;;;;;;56.20;52.58;;;;;;;5.46;67.99;99763.19;5018884;28;20603;-70
2023/12/05 05:27:12;;;;;;;52.15;49.13;;;;;;;5.46;68.11;99763.19;5044460;28;20045;-71
2023/12/05 05:29:37;;;;;;;53.50;50.40;;;;;;;5.47;68.01;99762.13;5011359;28;20033;-71
2023/12/05 05:32:03;;;;;;;68.30;62.97;;;;;;;5.47;67.99;99762.13;5009958;28;20113;-71
2023/12/05 05:34:28;;;;;;;56.47;53.03;;;;;;;5.47;67.88;99767.47;5024348;28;20041;-70
2023/12/05 05:36:54;;;;;;;60.75;56.50;;;;;;;5.46;68.32;99768.53;5029161;28;20038;-70
2023/12/05 05:39:20;;;;;;;58.35;54.30;;;;;;;5.46;68.07;99773.88;5012652;28;20030;-70
2023/12/05 05:41:46;;;;;;;56.13;52.58;;;;;;;5.47;67.89;99779.03;5011148;28;20470;-71
2023/12/05 05:44:11;;;;;;;62.00;57.42;;;;;;;5.48;68.09;99782.50;5020072;28;20048;-71
2023/12/05 05:46:36;;;;;;;48.45;46.10;;;;;;;5.46;68.05;99774.69;5027636;28;20095;-71
2023/12/05 05:49:02;;;;;;;53.75;50.25;;;;;;;5.48;68.24;99779.84;5029270;28;20068;-71
2023/12/05 05:51:27;;;;;;;55.63;51.67;;;;;;;5.47;68.00;99784.38;5029330;28;20029;-71
2023/12/05 05:53:55;;;;;;;53.63;50.28;;;;;;;5.47;67.86;99779.03;5030353;28;20537;-71
2023/12/05 05:56:21;;;;;;;55.00;51.70;;;;;;;5.50;68.27;99780.44;5017721;28;20033;-71
2023/12/05 05:58:47;;;;;;;55.92;52.38;;;;;;;5.50;68.17;99786.59;5010199;28;20030;-71
2023/12/05 06:01:12;;;;;;;57.08;53.28;;;;;;;5.50;68.02;99781.22;5009665;28;20034;-71
2023/12/05 06:03:37;;;;;;;52.33;49.33;;;;;;;5.51;67.99;99782.03;5013096;28;20034;-71
2023/12/05 06:06:03;;;;;;;58.85;54.47;;;;;;;5.51;68.06;99784.72;5018031;28;20063;-71
2023/12/05 06:08:29;;;;;;;55.03;51.28;;;;;;;5.52;68.15;99778.31;5029232;28;20061;-71
2023/12/05 06:10:54;;;;;;;61.17;57.55;;;;;;;5.52;68.24;99791.69;5030480;28;20022;-72
2023/12/05 06:13:20;;;;;;;55.83;52.55;;;;;;;5.52;68.10;99781.81;5011775;28;20438;-72
2023/12/05 06:15:45;;;;;;;56.97;53.42;;;;;;;5.53;68.04;99796.84;5027625;28;20040;-71
2023/12/05 06:18:15;;;;;;;62.97;58.15;;;;;;;5.54;68.02;99800.31;5030993;28;20524;-71
2023/12/05 06:20:40;;;;;;;49.75;47.00;;;;;;;5.54;68.32;99805.69;5034895;28;20057;-71
2023/12/05 06:23:06;;;;;;;60.97;57.25;;;;;;;5.54;68.32;99803.81;5028347;28;20479;-71
2023/12/05 06:25:31;;;;;;;52.13;48.50;;;;;;;5.54;68.12;99806.50;5014751;28;20061;-71
2023/12/05 06:27:57;;;;;;;58.42;54.75;;;;;;;5.53;68.16;99807.56;5018911;28;20029;-71
2023/12/05 06:30:22;;;;;;;54.30;51.45;;;;;;;5.55;68.04;99810.00;5007580;28;20886;-72
2023/12/05 06:32:47;;;;;;;59.85;55.72;;;;;;;5.55;68.15;99815.38;5014435;28;20026;-71
2023/12/05 06:35:13;;;;;;;51.80;48.15;;;;;;;5.55;67.86;99813.50;5012207;28;20803;-71
2023/12/05 06:37:38;;;;;;;47.28;44.97;;;;;;;5.55;68.14;99820.72;5016981;28;20034;-71
2023/12/05 06:40:04;;;;;;;61.42;56.83;;;;;;;5.54;68.04;99830.59;5024589;28;20040;-71
2023/12/05 06:42:30;;;;;;;54.47;50.97;;;;;;;5.55;68.08;99823.41;5021860;28;20119;-69
2023/12/05 06:44:56;;;;;;;55.22;51.65;;;;;;;5.56;68.17;99830.38;5013524;28;20463;-69
2023/12/05 06:47:21;;;;;;;59.30;55.10;;;;;;;5.56;68.14;99827.69;5032027;28;20033;-70
2023/12/05 06:49:47;;;;;;;52.50;49.45;;;;;;;5.56;68.48;99830.38;5020552;28;20064;-69
2023/12/05 06:52:13;;;;;;;56.63;53.13;;;;;;;5.58;68.30;99841.69;5025572;28;20029;-70
2023/12/05 06:54:38;;;;;;;54.63;50.95;;;;;;;5.56;68.25;99847.25;5013789;28;20482;-72
2023/12/05 06:57:04;;;;;;;52.65;49.30;;;;;;;5.57;68.12;99840.06;5013804;28;20088;-72
2023/12/05 06:59:29;;;;;;;55.53;52.35;;;;;;;5.56;68.26;99847.25;5030801;28;20026;-72
2023/12/05 07:01:55;;;;;;;58.83;55.17;;;;;;;5.57;68.07;99854.25;5032797;28;20085;-72
2023/12/05 07:04:21;;;;;;;59.85;55.70;;;;;;;5.57;68.13;99864.97;5031157;28;20429;-71
2023/12/05 07:06:46;;;;;;;56.47;52.42;;;;;;;5.58;68.25;99869.28;5032074;28;20049;-71
2023/12/05 07:09:12;;;;;;;54.58;51.08;;;;;;;5.58;68.11;99866.59;5031147;28;20061;-72
2023/12/05 07:11:37;;;;;;;52.35;49.00;;;;;;;5.59;68.14;99881.66;5015143;28;20053;-72
2023/12/05 07:14:03;;;;;;;58.03;54.50;;;;;;;5.59;68.04;99875.44;5029477;28;20033;-71
2023/12/05 07:16:28;;;;;;;63.90;58.70;;;;;;;5.58;68.07;99887.22;5018890;28;20038;-72
2023/12/05 07:18:55;;;;;;;58.72;54.03;;;;;;;5.59;68.15;99880.81;5017006;28;20041;-72
2023/12/05 07:21:20;;;;;;;56.10;52.88;;;;;;;5.60;68.32;99885.13;5018694;28;20030;-72
2023/12/05 07:23:46;;;;;;;59.45;55.50;;;;;;;5.60;68.24;99898.53;5027100;28;20037;-72
2023/12/05 07:26:11;;;;;;;56.60;53.40;;;;;;;5.59;68.01;99895.03;5030034;28;20076;-71
2023/12/05 07:28:37;;;;;;;62.42;57.20;;;;;;;5.59;68.19;99897.72;5029277;28;20034;-72
2023/12/05 07:31:02;;;;;;;58.53;53.90;;;;;;;5.60;67.81;99906.56;5014443;28;20034;-72
2023/12/05 07:33:28;;;;;;;51.22;48.03;;;;;;;5.60;68.06;99909.25;5019012;28;20048;-73
2023/12/05 07:35:53;;;;;;;55.63;52.42;;;;;;;5.60;68.19;99911.94;5042118;28;20497;-72
2023/12/05 07:38:19;;;;;;;50.70;48.08;;;;;;;5.59;68.08;99912.94;5014220;28;20034;-72
2023/12/05 07:40:44;;;;;;;54.72;51.80;;;;;;;5.59;67.80;99915.63;5028180;28;20034;-72
2023/12/05 07:43:09;;;;;;;59.47;54.88;;;;;;;5.59;68.07;99932.53;5030688;28;20029;-72
2023/12/05 07:45:35;;;;;;;58.97;54.25;;;;;;;5.59;67.90;99924.50;5025017;28;20081;-72
2023/12/05 07:48:00;;;;;;;65.28;60.33;;;;;;;5.61;67.99;99934.97;5015582;28;20498;-72
2023/12/05 07:50:26;;;;;;;61.05;56.63;;;;;;;5.60;67.89;99942.22;5029649;28;20054;-72
2023/12/05 07:52:51;;;;;;;55.28;51.78;;;;;;;5.61;68.23;99940.34;5047770;28;20402;-72
2023/12/05 07:55:17;;;;;;;57.85;54.58;;;;;;;5.60;67.95;99939.53;5026942;28;20032;-72
2023/12/05 07:57:44;;;;;;;57.75;53.45;;;;;;;5.61;68.00;99951.06;5031186;28;20482;-72
2023/12/05 08:00:16;;;;;;;55.25;51.92;;;;;;;5.61;68.06;99954.53;5030798;28;20382;-72
2023/12/05 08:02:44;;;;;;;55.30;51.72;;;;;;;5.62;67.88;99950.84;5026778;28;20486;-72
2023/12/05 08:05:10;;;;;;;57.22;53.42;;;;;;;5.64;67.82;99950.59;5013407;28;20056;-72
2023/12/05 08:07:36;;;;;;;58.38;53.55;;;;;;;5.66;67.79;99950.38;5026184;28;20129;-71
2023/12/05 08:10:02;;;;;;;64.00;59.30;;;;;;;5.64;67.62;99955.94;5030324;28;20104;-72
2023/12/05 08:12:27;;;;;;;59.08;55.47;;;;;;;5.64;67.83;99962.16;5023678;28;20030;-72
2023/12/05 08:14:52;;;;;;;49.58;47.03;;;;;;;5.64;67.76;99964.81;5016356;28;20382;-73
2023/12/05 08:17:18;;;;;;;54.58;51.70;;;;;;;5.63;68.09;99968.53;5029090;28;20037;-73
2023/12/05 08:19:43;;;;;;;54.67;51.03;;;;;;;5.63;68.13;99967.72;5011204;28;20170;-72
2023/12/05 08:22:08;;;;;;;50.05;47.20;;;;;;;5.62;68.02;99966.91;5016557;28;20383;-72
2023/12/05 08:24:34;;;;;;;52.45;49.45;;;;;;;5.63;67.99;99973.88;5019819;28;20060;-72
2023/12/05 08:27:00;;;;;;;58.88;54.90;;;;;;;5.64;68.01;99980.06;5021692;28;20458;-72
2023/12/05 08:29:25;;;;;;;54.33;51.17;;;;;;;5.67;67.79;99986.81;5011229;28;20064;-72
2023/12/05 08:31:51;;;;;;;55.08;51.58;;;;;;;5.66;67.73;99985.19;5012447;28;20042;-72
2023/12/05 08:34:16;;;;;;;64.47;59.53;;;;;;;5.64;67.44;99986.25;5031070;28;20075;-72
2023/12/05 08:36:44;;;;;;;46.03;43.72;;;;;;;5.65;67.54;99997.78;5015404;28;20379;-72
2023/12/05 08:39:13;;;;;;;50.83;48.42;;;;;;;5.63;67.89;99991.84;5024181;28;20034;-71
2023/12/05 08:41:39;;;;;;;53.08;49.88;;;;;;;5.62;67.74;99999.06;5025073;28;20029;-73
2023/12/05 08:44:04;;;;;;;54.65;50.88;;;;;;;5.63;67.83;100000.69;5027588;28;20033;-74
2023/12/05 08:46:30;;;;;;;65.10;59.47;;;;;;;5.63;67.68;100002.56;5028634;28;20083;-71
2023/12/05 08:48:55;;;;;;;55.60;52.03;;;;;;;5.63;67.77;100006.03;5004174;28;20468;-72
2023/12/05 08:51:21;;;;;;;60.20;55.50;;;;;;;5.64;67.75;100006.84;5028438;28;20030;-72
2023/12/05 08:53:46;;;;;;;59.72;55.50;;;;;;;5.65;67.91;100005.81;5020112;28;20117;-71
2023/12/05 08:56:12;;;;;;;57.47;53.88;;;;;;;5.66;67.50;100012.81;5011698;28;20080;-72
2023/12/05 08:58:38;;;;;;;53.22;50.22;;;;;;;5.68;67.86;100017.94;5011625;28;20445;-71
2023/12/05 09:01:03;;;;;;;63.45;59.08;;;;;;;5.68;67.44;100016.09;5028433;28;20065;-72
2023/12/05 09:03:29;;;;;;;64.75;59.90;;;;;;;5.67;67.34;100016.28;5024271;28;20532;-72
2023/12/05 09:05:54;;;;;;;63.63;58.78;;;;;;;5.66;67.74;100026.19;5016120;28;20488;-71
2023/12/05 09:08:21;;;;;;;52.97;50.30;;;;;;;5.65;67.67;100027.25;5010183;28;20076;-73
2023/12/05 09:10:46;;;;;;;67.13;61.42;;;;;;;5.64;67.62;100030.97;5029313;28;20033;-71
2023/12/05 09:13:12;;;;;;;54.75;51.10;;;;;;;5.63;67.73;100035.50;5013096;28;20513;-73
2023/12/05 09:15:38;;;;;;;51.30;48.17;;;;;;;5.64;67.69;100037.16;5010427;28;20037;-72
2023/12/05 09:18:03;;;;;;;48.72;45.90;;;;;;;5.64;67.50;100039.84;5011943;28;20045;-73
2023/12/05 09:20:29;;;;;;;56.67;52.90;;;;;;;5.64;67.74;100045.22;5026551;28;20454;-72
2023/12/05 09:22:54;;;;;;;61.08;56.53;;;;;;;5.66;67.70;100044.97;5027416;28;20072;-72
2023/12/05 09:25:20;;;;;;;50.92;48.08;;;;;;;5.67;67.53;100057.31;5022811;28;20060;-72
2023/12/05 09:27:45;;;;;;;55.05;51.33;;;;;;;5.68;67.49;100056.28;5027599;28;20506;-72
2023/12/05 09:30:12;;;;;;;49.42;46.85;;;;;;;5.68;67.58;100060.81;5029551;28;20037;-72
2023/12/05 09:32:37;;;;;;;54.38;51.13;;;;;;;5.68;67.43;100066.19;5028033;28;20485;-72
2023/12/05 09:35:04;;;;;;;52.95;49.65;;;;;;;5.69;67.56;100068.63;5026814;28;20032;-72
2023/12/05 09:37:30;;;;;;;57.25;53.65;;;;;;;5.70;67.60;100072.94;5017768;28;20068;-72
2023/12/05 09:39:55;;;;;;;51.80;48.95;;;;;;;5.70;67.63;100072.94;5016817;28;20038;-72
2023/12/05 09:42:25;;;;;;;58.65;54.13;;;;;;;5.70;67.48;100078.31;5029118;28;20038;-72
2023/12/05 09:44:50;;;;;;;53.05;49.70;;;;;;;5.70;67.51;100072.13;5023582;28;20037;-71
2023/12/05 09:47:20;;;;;;;58.90;53.88;;;;;;;5.69;67.48;100076.66;5014729;28;20089;-72
2023/12/05 09:49:46;;;;;;;57.13;52.45;;;;;;;5.70;67.33;100093.56;5015000;28;20497;-72
2023/12/05 09:52:11;;;;;;;55.53;52.53;;;;;;;5.69;67.51;100090.03;5031786;28;20048;-74
2023/12/05 09:54:38;;;;;;;51.90;48.72;;;;;;;5.69;67.40;100091.91;5033467;28;20458;-71
2023/12/05 09:57:05;;;;;;;54.78;51.38;;;;;;;5.69;67.65;100091.91;5023570;28;20045;-73
2023/12/05 09:59:30;;;;;;;56.83;52.60;;;;;;;5.70;67.68;100096.25;5015649;28;20030;-72
2023/12/05 10:02:04;;;;;;;47.85;45.20;;;;;;;5.68;67.46;100093.78;5032030;28;20569;-72
2023/12/05 10:04:37;;;;;;;56.00;52.60;;;;;;;5.66;67.64;100106.59;5033166;28;20077;-71
2023/12/05 10:07:04;;;;;;;54.47;51.15;;;;;;;5.66;67.29;100108.44;5030704;28;20050;-72
2023/12/05 10:09:31;;;;;;;52.50;49.30;;;;;;;5.68;67.61;100109.88;5032286;28;20029;-71
2023/12/05 10:11:57;;;;;;;55.88;51.70;;;;;;;5.69;67.47;100121.41;5019441;28;20482;-72
2023/12/05 10:14:23;;;;;;;56.22;52.10;;;;;;;5.70;67.38;100123.03;5012706;28;20109;-74
2023/12/05 10:16:50;;;;;;;57.38;53.30;;;;;;;5.70;67.35;100123.03;5029082;28;20175;-72
2023/12/05 10:19:16;;;;;;;49.67;46.80;;;;;;;5.69;67.55;100135.59;5028622;28;20140;-71
2023/12/05 10:21:44;;;;;;;52.42;49.15;;;;;;;5.70;67.49;100131.09;4998346;28;20777;-72
2023/12/05 10:24:10;;;;;;;50.33;47.63;;;;;;;5.70;67.55;100136.44;5032768;28;20501;-71
2023/12/05 10:26:44;;;;;;;55.90;51.78;;;;;;;5.69;67.39;100135.59;5029985;28;20516;-72
2023/12/05 10:29:10;;;;;;;52.88;49.42;;;;;;;5.69;67.65;100134.78;5019171;28;20470;-72
2023/12/05 10:31:35;;;;;;;56.55;52.75;;;;;;;5.70;67.40;100136.44;5012960;28;20040;-77
2023/12/05 10:34:05;;;;;;;57.97;54.78;;;;;;;5.70;67.49;100142.63;5021590;28;20030;-73
2023/12/05 10:36:31;;;;;;;55.55;51.60;;;;;;;5.70;67.29;100141.81;5021630;28;20041;-72
2023/12/05 10:38:56;;;;;;;55.50;51.88;;;;;;;5.70;67.18;100149.84;5014308;28;20103;-79
2023/12/05 10:41:23;;;;;;;52.65;49.67;;;;;;;5.71;67.38;100148.78;5030943;28;20124;-76
2023/12/05 10:43:49;;;;;;;51.90;49.38;;;;;;;5.70;67.32;100158.69;5031114;28;20041;-71
2023/12/05 10:46:15;;;;;;;56.55;52.80;;;;;;;5.72;67.08;100153.09;5032852;28;20034;-72
2023/12/05 10:48:40;;;;;;;52.90;49.80;;;;;;;5.73;67.15;100155.56;5039798;28;20046;-74
2023/12/05 10:51:06;;;;;;;50.05;47.30;;;;;;;5.75;67.14;100156.16;5019948;28;20064;-72
2023/12/05 10:53:34;;;;;;;49.50;46.65;;;;;;;5.75;67.42;100160.72;5016255;28;20100;-73
2023/12/05 10:56:19;;;;;;;53.58;51.00;;;;;;;5.76;67.40;100156.97;5032921;28;20421;-74
2023/12/05 10:58:47;;;;;;;56.20;53.20;;;;;;;5.74;67.26;100159.03;5029620;28;20082;-75
2023/12/05 11:01:13;;;;;;;56.45;53.58;;;;;;;5.73;67.16;100157.41;5016274;28;20053;-75
2023/12/05 11:03:40;;;;;;;57.20;53.65;;;;;;;5.72;67.15;100161.13;5032059;28;20116;-72
2023/12/05 11:06:07;;;;;;;58.35;54.60;;;;;;;5.69;67.34;100157.03;5031616;28;20133;-72
2023/12/05 11:08:33;;;;;;;57.60;54.55;;;;;;;5.71;67.28;100156.81;5020402;28;20053;-73
2023/12/05 11:11:01;;;;;;;52.38;49.60;;;;;;;5.72;67.04;100163.81;5016028;28;20432;-74
2023/12/05 11:13:27;;;;;;;54.78;51.80;;;;;;;5.73;67.20;100168.97;5023997;28;20486;-76
2023/12/05 11:15:58;;;;;;;57.08;53.63;;;;;;;5.73;67.06;100162.78;5023399;28;20505;-74
2023/12/05 11:18:35;;;;;;;55.65;52.60;;;;;;;5.73;67.19;100163.59;5020631;28;20367;-73
2023/12/05 11:21:43;;;;;;;53.92;50.83;;;;;;;5.73;67.21;100174.31;5031510;28;20048;-74